sensor_id;sensor_type;location;lat;lon;timestamp;P1;durP1;ratioP1;P2;durP2;ratioP2
2646;SDS011;1333;50.958;6.770;2023-12-14T00:02:19;36.53;;;17.93;;
2646;SDS011;1333;50.958;6.770;2023-12-14T00:04:44;45.00;;;16.90;;
2646;SDS011;1333;50.958;6.770;2023-12-14T00:07:10;41.17;;;17.70;;
2646;SDS011;1333;50.958;6.770;2023-12-14T00:09:39;42.33;;;18.53;;
2646;SDS011;1333;50.958;6.770;2023-12-14T00:12:05;34.47;;;16.40;;
2646;SDS011;1333;50.958;6.770;2023-12-14T00:14:30;45.70;;;18.63;;
2646;SDS011;1333;50.958;6.770;2023-12-14T00:16:56;36.87;;;17.90;;
2646;SDS011;1333;50.958;6.770;2023-12-14T00:19:24;36.90;;;17.20;;
2646;SDS011;1333;50.958;6.770;2023-12-14T00:21:49;36.33;;;17.10;;
2646;SDS011;1333;50.958;6.770;2023-12-14T00:24:15;33.77;;;17.53;;
2646;SDS011;1333;50.958;6.770;2023-12-14T00:26:40;40.27;;;16.33;;
2646;SDS011;1333;50.958;6.770;2023-12-14T00:29:06;31.70;;;15.37;;
2646;SDS011;1333;50.958;6.770;2023-12-14T00:31:31;28.03;;;14.97;;
2646;SDS011;1333;50.958;6.770;2023-12-14T00:33:57;28.27;;;15.10;;
2646;SDS011;1333;50.958;6.770;2023-12-14T00:36:22;35.07;;;16.57;;
2646;SDS011;1333;50.958;6.770;2023-12-14T00:38:48;31.60;;;16.73;;
2646;SDS011;1333;50.958;6.770;2023-12-14T00:41:13;35.93;;;17.23;;
2646;SDS011;1333;50.958;6.770;2023-12-14T00:43:39;36.07;;;15.87;;
2646;SDS011;1333;50.958;6.770;2023-12-14T00:46:05;32.23;;;16.40;;
2646;SDS011;1333;50.958;6.770;2023-12-14T00:48:30;30.63;;;16.57;;
2646;SDS011;1333;50.958;6.770;2023-12-14T00:50:56;33.70;;;16.30;;
2646;SDS011;1333;50.958;6.770;2023-12-14T00:53:21;28.60;;;16.23;;
2646;SDS011;1333;50.958;6.770;2023-12-14T00:55:47;32.20;;;17.80;;
2646;SDS011;1333;50.958;6.770;2023-12-14T00:58:13;30.07;;;15.23;;
2646;SDS011;1333;50.958;6.770;2023-12-14T01:00:38;37.83;;;16.67;;
2646;SDS011;1333;50.958;6.770;2023-12-14T01:03:04;29.90;;;16.50;;
2646;SDS011;1333;50.958;6.770;2023-12-14T01:05:29;32.20;;;17.97;;
2646;SDS011;1333;50.958;6.770;2023-12-14T01:07:55;35.03;;;17.50;;
2646;SDS011;1333;50.958;6.770;2023-12-14T01:10:20;40.03;;;20.13;;
2646;SDS011;1333;50.958;6.770;2023-12-14T01:12:46;47.83;;;20.23;;
2646;SDS011;1333;50.958;6.770;2023-12-14T01:15:11;47.00;;;20.27;;
2646;SDS011;1333;50.958;6.770;2023-12-14T01:17:37;37.23;;;15.67;;
2646;SDS011;1333;50.958;6.770;2023-12-14T01:20:04;38.47;;;18.90;;
2646;SDS011;1333;50.958;6.770;2023-12-14T01:22:31;31.33;;;17.70;;
2646;SDS011;1333;50.958;6.770;2023-12-14T01:24:57;43.07;;;21.23;;
2646;SDS011;1333;50.958;6.770;2023-12-14T01:27:22;38.10;;;18.83;;
2646;SDS011;1333;50.958;6.770;2023-12-14T01:29:48;40.77;;;17.10;;
2646;SDS011;1333;50.958;6.770;2023-12-14T01:32:13;37.90;;;18.30;;
2646;SDS011;1333;50.958;6.770;2023-12-14T01:34:39;40.50;;;20.70;;
2646;SDS011;1333;50.958;6.770;2023-12-14T01:37:04;41.70;;;19.27;;
2646;SDS011;1333;50.958;6.770;2023-12-14T01:39:30;37.53;;;19.07;;
2646;SDS011;1333;50.958;6.770;2023-12-14T01:41:55;42.57;;;18.87;;
2646;SDS011;1333;50.958;6.770;2023-12-14T01:44:21;41.07;;;20.20;;
2646;SDS011;1333;50.958;6.770;2023-12-14T01:46:46;41.27;;;19.70;;
2646;SDS011;1333;50.958;6.770;2023-12-14T01:49:12;40.60;;;20.93;;
2646;SDS011;1333;50.958;6.770;2023-12-14T01:51:37;40.20;;;19.43;;
2646;SDS011;1333;50.958;6.770;2023-12-14T01:54:03;45.80;;;21.80;;
2646;SDS011;1333;50.958;6.770;2023-12-14T01:56:28;41.30;;;19.53;;
2646;SDS011;1333;50.958;6.770;2023-12-14T01:58:54;32.90;;;16.90;;
2646;SDS011;1333;50.958;6.770;2023-12-14T02:03:57;39.07;;;20.80;;
2646;SDS011;1333;50.958;6.770;2023-12-14T02:06:22;34.30;;;21.73;;
2646;SDS011;1333;50.958;6.770;2023-12-14T02:08:48;43.07;;;22.33;;
2646;SDS011;1333;50.958;6.770;2023-12-14T02:11:13;33.83;;;17.70;;
2646;SDS011;1333;50.958;6.770;2023-12-14T02:13:39;34.63;;;17.97;;
2646;SDS011;1333;50.958;6.770;2023-12-14T02:16:05;43.37;;;17.57;;
2646;SDS011;1333;50.958;6.770;2023-12-14T02:18:30;36.77;;;18.23;;
2646;SDS011;1333;50.958;6.770;2023-12-14T02:20:56;48.07;;;19.57;;
2646;SDS011;1333;50.958;6.770;2023-12-14T02:23:22;40.73;;;19.20;;
2646;SDS011;1333;50.958;6.770;2023-12-14T02:25:47;41.60;;;20.03;;
2646;SDS011;1333;50.958;6.770;2023-12-14T02:28:13;43.93;;;19.27;;
2646;SDS011;1333;50.958;6.770;2023-12-14T02:30:38;40.40;;;20.50;;
2646;SDS011;1333;50.958;6.770;2023-12-14T02:33:04;40.60;;;18.87;;
2646;SDS011;1333;50.958;6.770;2023-12-14T02:35:29;41.77;;;21.33;;
2646;SDS011;1333;50.958;6.770;2023-12-14T02:37:55;35.53;;;20.60;;
2646;SDS011;1333;50.958;6.770;2023-12-14T02:40:20;40.80;;;19.87;;
2646;SDS011;1333;50.958;6.770;2023-12-14T02:42:46;34.33;;;18.17;;
2646;SDS011;1333;50.958;6.770;2023-12-14T02:45:11;34.27;;;19.20;;
2646;SDS011;1333;50.958;6.770;2023-12-14T02:47:37;35.13;;;18.20;;
2646;SDS011;1333;50.958;6.770;2023-12-14T02:50:03;34.77;;;18.80;;
2646;SDS011;1333;50.958;6.770;2023-12-14T02:52:28;35.63;;;18.10;;
2646;SDS011;1333;50.958;6.770;2023-12-14T02:54:54;46.13;;;18.10;;
2646;SDS011;1333;50.958;6.770;2023-12-14T02:57:19;34.40;;;16.37;;
2646;SDS011;1333;50.958;6.770;2023-12-14T02:59:45;34.33;;;18.70;;
2646;SDS011;1333;50.958;6.770;2023-12-14T03:02:10;32.03;;;15.77;;
2646;SDS011;1333;50.958;6.770;2023-12-14T03:04:39;31.90;;;17.47;;
2646;SDS011;1333;50.958;6.770;2023-12-14T03:07:05;31.70;;;16.67;;
2646;SDS011;1333;50.958;6.770;2023-12-14T03:09:31;40.60;;;18.93;;
2646;SDS011;1333;50.958;6.770;2023-12-14T03:11:57;37.80;;;20.50;;
2646;SDS011;1333;50.958;6.770;2023-12-14T03:14:22;35.93;;;19.33;;
2646;SDS011;1333;50.958;6.770;2023-12-14T03:16:48;37.20;;;18.97;;
2646;SDS011;1333;50.958;6.770;2023-12-14T03:19:14;33.43;;;18.33;;
2646;SDS011;1333;50.958;6.770;2023-12-14T03:21:40;31.00;;;17.03;;
2646;SDS011;1333;50.958;6.770;2023-12-14T03:24:06;30.30;;;17.50;;
2646;SDS011;1333;50.958;6.770;2023-12-14T03:26:32;38.73;;;19.87;;
2646;SDS011;1333;50.958;6.770;2023-12-14T03:28:58;31.60;;;17.57;;
2646;SDS011;1333;50.958;6.770;2023-12-14T03:31:23;34.43;;;18.70;;
2646;SDS011;1333;50.958;6.770;2023-12-14T03:33:49;34.97;;;16.97;;
2646;SDS011;1333;50.958;6.770;2023-12-14T03:36:14;29.90;;;16.67;;
2646;SDS011;1333;50.958;6.770;2023-12-14T03:38:40;33.23;;;19.37;;
2646;SDS011;1333;50.958;6.770;2023-12-14T03:41:05;28.37;;;17.17;;
2646;SDS011;1333;50.958;6.770;2023-12-14T03:43:31;35.73;;;17.20;;
2646;SDS011;1333;50.958;6.770;2023-12-14T03:45:56;28.83;;;15.90;;
2646;SDS011;1333;50.958;6.770;2023-12-14T03:48:22;27.40;;;15.20;;
2646;SDS011;1333;50.958;6.770;2023-12-14T03:50:47;31.70;;;17.60;;
2646;SDS011;1333;50.958;6.770;2023-12-14T03:53:13;29.63;;;16.53;;
2646;SDS011;1333;50.958;6.770;2023-12-14T03:55:38;33.43;;;16.40;;
2646;SDS011;1333;50.958;6.770;2023-12-14T03:58:04;42.37;;;15.90;;
2646;SDS011;1333;50.958;6.770;2023-12-14T04:00:29;35.70;;;17.00;;
2646;SDS011;1333;50.958;6.770;2023-12-14T04:02:55;37.70;;;17.97;;
2646;SDS011;1333;50.958;6.770;2023-12-14T04:05:20;25.07;;;12.47;;
2646;SDS011;1333;50.958;6.770;2023-12-14T04:07:46;22.20;;;13.80;;
2646;SDS011;1333;50.958;6.770;2023-12-14T04:10:12;23.67;;;13.10;;
2646;SDS011;1333;50.958;6.770;2023-12-14T04:12:38;32.13;;;16.07;;
2646;SDS011;1333;50.958;6.770;2023-12-14T04:15:05;37.10;;;16.50;;
2646;SDS011;1333;50.958;6.770;2023-12-14T04:17:31;32.83;;;15.50;;
2646;SDS011;1333;50.958;6.770;2023-12-14T04:19:58;45.87;;;18.33;;
2646;SDS011;1333;50.958;6.770;2023-12-14T04:22:24;34.47;;;16.40;;
2646;SDS011;1333;50.958;6.770;2023-12-14T04:24:50;25.37;;;13.80;;
2646;SDS011;1333;50.958;6.770;2023-12-14T04:27:15;25.60;;;12.50;;
2646;SDS011;1333;50.958;6.770;2023-12-14T04:29:41;23.27;;;12.13;;
2646;SDS011;1333;50.958;6.770;2023-12-14T04:32:07;23.60;;;12.20;;
2646;SDS011;1333;50.958;6.770;2023-12-14T04:34:32;23.53;;;12.93;;
2646;SDS011;1333;50.958;6.770;2023-12-14T04:36:58;26.10;;;12.17;;
2646;SDS011;1333;50.958;6.770;2023-12-14T04:39:24;28.93;;;11.73;;
2646;SDS011;1333;50.958;6.770;2023-12-14T04:41:50;31.30;;;13.07;;
2646;SDS011;1333;50.958;6.770;2023-12-14T04:44:17;26.70;;;13.00;;
2646;SDS011;1333;50.958;6.770;2023-12-14T04:46:43;28.90;;;14.87;;
2646;SDS011;1333;50.958;6.770;2023-12-14T04:49:08;25.73;;;13.63;;
2646;SDS011;1333;50.958;6.770;2023-12-14T04:51:34;31.87;;;14.20;;
2646;SDS011;1333;50.958;6.770;2023-12-14T04:53:59;28.20;;;13.93;;
2646;SDS011;1333;50.958;6.770;2023-12-14T04:56:25;27.77;;;15.37;;
2646;SDS011;1333;50.958;6.770;2023-12-14T04:58:50;32.60;;;15.30;;
2646;SDS011;1333;50.958;6.770;2023-12-14T05:01:16;26.43;;;16.50;;
2646;SDS011;1333;50.958;6.770;2023-12-14T05:03:41;27.43;;;14.70;;
2646;SDS011;1333;50.958;6.770;2023-12-14T05:06:07;32.73;;;17.80;;
2646;SDS011;1333;50.958;6.770;2023-12-14T05:08:32;30.00;;;15.23;;
2646;SDS011;1333;50.958;6.770;2023-12-14T05:10:58;31.63;;;15.97;;
2646;SDS011;1333;50.958;6.770;2023-12-14T05:13:24;35.53;;;16.97;;
2646;SDS011;1333;50.958;6.770;2023-12-14T05:15:50;37.07;;;19.07;;
2646;SDS011;1333;50.958;6.770;2023-12-14T05:18:16;35.00;;;15.77;;
2646;SDS011;1333;50.958;6.770;2023-12-14T05:20:42;34.57;;;17.17;;
2646;SDS011;1333;50.958;6.770;2023-12-14T05:23:08;26.43;;;16.30;;
2646;SDS011;1333;50.958;6.770;2023-12-14T05:25:33;32.53;;;16.47;;
2646;SDS011;1333;50.958;6.770;2023-12-14T05:27:59;24.90;;;13.03;;
2646;SDS011;1333;50.958;6.770;2023-12-14T05:30:24;27.50;;;13.47;;
2646;SDS011;1333;50.958;6.770;2023-12-14T05:32:50;23.13;;;14.37;;
2646;SDS011;1333;50.958;6.770;2023-12-14T05:35:15;20.47;;;12.57;;
2646;SDS011;1333;50.958;6.770;2023-12-14T05:37:41;25.30;;;13.80;;
2646;SDS011;1333;50.958;6.770;2023-12-14T05:40:07;25.43;;;13.67;;
2646;SDS011;1333;50.958;6.770;2023-12-14T05:42:34;24.63;;;11.27;;
2646;SDS011;1333;50.958;6.770;2023-12-14T05:44:59;26.23;;;11.47;;
2646;SDS011;1333;50.958;6.770;2023-12-14T05:47:28;27.13;;;14.43;;
2646;SDS011;1333;50.958;6.770;2023-12-14T05:49:55;28.20;;;14.43;;
2646;SDS011;1333;50.958;6.770;2023-12-14T05:52:20;25.23;;;13.73;;
2646;SDS011;1333;50.958;6.770;2023-12-14T05:54:46;29.43;;;14.70;;
2646;SDS011;1333;50.958;6.770;2023-12-14T05:57:11;22.33;;;12.77;;
2646;SDS011;1333;50.958;6.770;2023-12-14T05:59:38;33.43;;;14.57;;
2646;SDS011;1333;50.958;6.770;2023-12-14T06:02:04;26.20;;;14.93;;
2646;SDS011;1333;50.958;6.770;2023-12-14T06:04:31;31.13;;;14.47;;
2646;SDS011;1333;50.958;6.770;2023-12-14T06:06:57;24.73;;;13.27;;
2646;SDS011;1333;50.958;6.770;2023-12-14T06:09:22;34.80;;;15.23;;
2646;SDS011;1333;50.958;6.770;2023-12-14T06:11:54;26.70;;;14.83;;
2646;SDS011;1333;50.958;6.770;2023-12-14T06:14:19;32.93;;;16.03;;
2646;SDS011;1333;50.958;6.770;2023-12-14T06:16:45;37.90;;;15.17;;
2646;SDS011;1333;50.958;6.770;2023-12-14T06:19:11;33.17;;;14.37;;
2646;SDS011;1333;50.958;6.770;2023-12-14T06:21:36;36.33;;;13.63;;
2646;SDS011;1333;50.958;6.770;2023-12-14T06:24:02;32.10;;;14.57;;
2646;SDS011;1333;50.958;6.770;2023-12-14T06:26:28;28.23;;;13.90;;
2646;SDS011;1333;50.958;6.770;2023-12-14T06:28:54;34.83;;;14.10;;
2646;SDS011;1333;50.958;6.770;2023-12-14T06:31:19;29.57;;;15.73;;
2646;SDS011;1333;50.958;6.770;2023-12-14T06:33:48;29.53;;;14.10;;
2646;SDS011;1333;50.958;6.770;2023-12-14T06:36:15;28.70;;;14.20;;
2646;SDS011;1333;50.958;6.770;2023-12-14T06:38:42;27.37;;;13.30;;
2646;SDS011;1333;50.958;6.770;2023-12-14T06:41:07;29.13;;;13.63;;
2646;SDS011;1333;50.958;6.770;2023-12-14T06:43:34;25.10;;;13.00;;
2646;SDS011;1333;50.958;6.770;2023-12-14T06:45:59;37.03;;;14.17;;
2646;SDS011;1333;50.958;6.770;2023-12-14T06:48:25;26.53;;;12.97;;
2646;SDS011;1333;50.958;6.770;2023-12-14T06:50:50;31.73;;;13.37;;
2646;SDS011;1333;50.958;6.770;2023-12-14T06:53:16;31.00;;;13.87;;
2646;SDS011;1333;50.958;6.770;2023-12-14T06:55:41;30.10;;;12.70;;
2646;SDS011;1333;50.958;6.770;2023-12-14T06:58:07;34.60;;;13.93;;
2646;SDS011;1333;50.958;6.770;2023-12-14T07:00:36;33.17;;;15.23;;
2646;SDS011;1333;50.958;6.770;2023-12-14T07:03:02;30.57;;;15.13;;
2646;SDS011;1333;50.958;6.770;2023-12-14T07:05:28;31.30;;;12.07;;
2646;SDS011;1333;50.958;6.770;2023-12-14T07:07:54;33.63;;;14.07;;
2646;SDS011;1333;50.958;6.770;2023-12-14T07:10:21;30.47;;;13.60;;
2646;SDS011;1333;50.958;6.770;2023-12-14T07:12:47;31.17;;;13.90;;
2646;SDS011;1333;50.958;6.770;2023-12-14T07:15:12;29.90;;;12.80;;
2646;SDS011;1333;50.958;6.770;2023-12-14T07:17:38;29.60;;;14.10;;
2646;SDS011;1333;50.958;6.770;2023-12-14T07:20:03;23.93;;;12.70;;
2646;SDS011;1333;50.958;6.770;2023-12-14T07:22:31;30.07;;;14.57;;
2646;SDS011;1333;50.958;6.770;2023-12-14T07:24:56;29.20;;;13.27;;
2646;SDS011;1333;50.958;6.770;2023-12-14T07:27:22;27.67;;;12.90;;
2646;SDS011;1333;50.958;6.770;2023-12-14T07:29:47;31.20;;;12.97;;
2646;SDS011;1333;50.958;6.770;2023-12-14T07:32:13;37.53;;;16.27;;
2646;SDS011;1333;50.958;6.770;2023-12-14T07:34:38;35.60;;;15.50;;
2646;SDS011;1333;50.958;6.770;2023-12-14T07:37:04;31.17;;;15.20;;
2646;SDS011;1333;50.958;6.770;2023-12-14T07:39:30;37.37;;;13.57;;
2646;SDS011;1333;50.958;6.770;2023-12-14T07:41:56;27.30;;;13.57;;
2646;SDS011;1333;50.958;6.770;2023-12-14T07:44:22;28.20;;;14.60;;
2646;SDS011;1333;50.958;6.770;2023-12-14T07:46:50;25.50;;;12.63;;
2646;SDS011;1333;50.958;6.770;2023-12-14T07:49:15;24.13;;;13.33;;
2646;SDS011;1333;50.958;6.770;2023-12-14T07:51:45;22.93;;;11.73;;
2646;SDS011;1333;50.958;6.770;2023-12-14T07:54:11;25.83;;;11.47;;
2646;SDS011;1333;50.958;6.770;2023-12-14T07:56:36;26.83;;;11.87;;
2646;SDS011;1333;50.958;6.770;2023-12-14T07:59:02;21.90;;;10.97;;
2646;SDS011;1333;50.958;6.770;2023-12-14T08:01:31;23.07;;;10.23;;
2646;SDS011;1333;50.958;6.770;2023-12-14T08:03:57;25.50;;;11.83;;
2646;SDS011;1333;50.958;6.770;2023-12-14T08:06:22;20.73;;;9.83;;
2646;SDS011;1333;50.958;6.770;2023-12-14T08:08:48;25.43;;;10.70;;
2646;SDS011;1333;50.958;6.770;2023-12-14T08:11:13;27.80;;;11.23;;
2646;SDS011;1333;50.958;6.770;2023-12-14T08:13:39;21.80;;;10.63;;
2646;SDS011;1333;50.958;6.770;2023-12-14T08:16:05;18.50;;;10.63;;
2646;SDS011;1333;50.958;6.770;2023-12-14T08:18:32;22.10;;;11.60;;
2646;SDS011;1333;50.958;6.770;2023-12-14T08:20:57;25.20;;;12.67;;
2646;SDS011;1333;50.958;6.770;2023-12-14T08:23:23;18.53;;;11.47;;
2646;SDS011;1333;50.958;6.770;2023-12-14T08:25:52;25.40;;;11.83;;
2646;SDS011;1333;50.958;6.770;2023-12-14T08:28:23;21.27;;;12.17;;
2646;SDS011;1333;50.958;6.770;2023-12-14T08:30:50;20.80;;;10.90;;
2646;SDS011;1333;50.958;6.770;2023-12-14T08:33:16;21.33;;;12.60;;
2646;SDS011;1333;50.958;6.770;2023-12-14T08:35:41;18.33;;;10.70;;
2646;SDS011;1333;50.958;6.770;2023-12-14T08:38:07;20.47;;;11.27;;
2646;SDS011;1333;50.958;6.770;2023-12-14T08:40:32;35.77;;;17.33;;
2646;SDS011;1333;50.958;6.770;2023-12-14T08:42:58;25.40;;;12.60;;
2646;SDS011;1333;50.958;6.770;2023-12-14T08:45:24;20.53;;;10.00;;
2646;SDS011;1333;50.958;6.770;2023-12-14T08:47:49;26.27;;;12.73;;
2646;SDS011;1333;50.958;6.770;2023-12-14T08:50:15;22.77;;;13.30;;
2646;SDS011;1333;50.958;6.770;2023-12-14T08:52:40;26.73;;;12.43;;
2646;SDS011;1333;50.958;6.770;2023-12-14T08:55:07;30.90;;;14.60;;
2646;SDS011;1333;50.958;6.770;2023-12-14T08:57:33;26.83;;;14.20;;
2646;SDS011;1333;50.958;6.770;2023-12-14T08:59:59;30.77;;;13.10;;
2646;SDS011;1333;50.958;6.770;2023-12-14T09:02:24;27.00;;;13.47;;
2646;SDS011;1333;50.958;6.770;2023-12-14T09:04:50;25.60;;;13.57;;
2646;SDS011;1333;50.958;6.770;2023-12-14T09:07:16;23.43;;;13.27;;
2646;SDS011;1333;50.958;6.770;2023-12-14T09:09:42;23.77;;;11.60;;
2646;SDS011;1333;50.958;6.770;2023-12-14T09:12:08;19.77;;;11.87;;
2646;SDS011;1333;50.958;6.770;2023-12-14T09:14:34;26.70;;;13.40;;
2646;SDS011;1333;50.958;6.770;2023-12-14T09:17:00;23.50;;;11.87;;
2646;SDS011;1333;50.958;6.770;2023-12-14T09:19:25;26.00;;;12.60;;
2646;SDS011;1333;50.958;6.770;2023-12-14T09:21:51;30.67;;;12.47;;
2646;SDS011;1333;50.958;6.770;2023-12-14T09:24:16;28.40;;;14.67;;
2646;SDS011;1333;50.958;6.770;2023-12-14T09:26:43;23.43;;;13.50;;
2646;SDS011;1333;50.958;6.770;2023-12-14T09:29:08;21.07;;;11.70;;
2646;SDS011;1333;50.958;6.770;2023-12-14T09:31:34;28.20;;;13.27;;
2646;SDS011;1333;50.958;6.770;2023-12-14T09:34:00;20.30;;;10.93;;
2646;SDS011;1333;50.958;6.770;2023-12-14T09:36:26;22.03;;;12.50;;
2646;SDS011;1333;50.958;6.770;2023-12-14T09:38:51;24.43;;;11.77;;
2646;SDS011;1333;50.958;6.770;2023-12-14T09:41:17;23.87;;;12.30;;
2646;SDS011;1333;50.958;6.770;2023-12-14T09:43:43;21.90;;;12.50;;
2646;SDS011;1333;50.958;6.770;2023-12-14T09:46:10;25.10;;;12.20;;
2646;SDS011;1333;50.958;6.770;2023-12-14T09:48:36;23.07;;;12.50;;
2646;SDS011;1333;50.958;6.770;2023-12-14T09:51:02;24.87;;;12.73;;
2646;SDS011;1333;50.958;6.770;2023-12-14T09:53:28;20.97;;;12.50;;
2646;SDS011;1333;50.958;6.770;2023-12-14T09:55:53;28.03;;;13.20;;
2646;SDS011;1333;50.958;6.770;2023-12-14T09:58:19;21.43;;;11.90;;
2646;SDS011;1333;50.958;6.770;2023-12-14T10:00:45;24.50;;;13.37;;
2646;SDS011;1333;50.958;6.770;2023-12-14T10:05:42;26.03;;;12.93;;
2646;SDS011;1333;50.958;6.770;2023-12-14T10:08:08;27.40;;;13.40;;
2646;SDS011;1333;50.958;6.770;2023-12-14T10:10:34;24.67;;;13.10;;
2646;SDS011;1333;50.958;6.770;2023-12-14T10:12:59;21.80;;;12.27;;
2646;SDS011;1333;50.958;6.770;2023-12-14T10:15:26;28.60;;;13.90;;
2646;SDS011;1333;50.958;6.770;2023-12-14T10:17:52;26.53;;;12.40;;
2646;SDS011;1333;50.958;6.770;2023-12-14T10:20:22;23.57;;;12.93;;
2646;SDS011;1333;50.958;6.770;2023-12-14T10:22:52;23.27;;;13.77;;
2646;SDS011;1333;50.958;6.770;2023-12-14T10:25:18;23.17;;;11.90;;
2646;SDS011;1333;50.958;6.770;2023-12-14T10:27:48;25.23;;;14.20;;
2646;SDS011;1333;50.958;6.770;2023-12-14T10:30:17;25.80;;;13.10;;
2646;SDS011;1333;50.958;6.770;2023-12-14T10:32:44;22.10;;;12.20;;
2646;SDS011;1333;50.958;6.770;2023-12-14T10:35:14;26.47;;;13.10;;
2646;SDS011;1333;50.958;6.770;2023-12-14T10:37:44;26.17;;;12.77;;
2646;SDS011;1333;50.958;6.770;2023-12-14T10:40:11;23.60;;;13.10;;
2646;SDS011;1333;50.958;6.770;2023-12-14T10:42:39;23.50;;;11.90;;
2646;SDS011;1333;50.958;6.770;2023-12-14T10:45:10;22.23;;;11.77;;
2646;SDS011;1333;50.958;6.770;2023-12-14T10:47:39;27.00;;;12.67;;
2646;SDS011;1333;50.958;6.770;2023-12-14T10:50:08;17.67;;;10.70;;
2646;SDS011;1333;50.958;6.770;2023-12-14T10:52:36;20.63;;;11.30;;
2646;SDS011;1333;50.958;6.770;2023-12-14T10:55:18;18.50;;;10.70;;
2646;SDS011;1333;50.958;6.770;2023-12-14T10:57:51;23.00;;;11.37;;
2646;SDS011;1333;50.958;6.770;2023-12-14T11:00:17;25.53;;;13.43;;
2646;SDS011;1333;50.958;6.770;2023-12-14T11:02:45;22.70;;;13.90;;
2646;SDS011;1333;50.958;6.770;2023-12-14T11:05:12;18.30;;;11.37;;
2646;SDS011;1333;50.958;6.770;2023-12-14T11:07:50;22.00;;;11.93;;
2646;SDS011;1333;50.958;6.770;2023-12-14T11:10:27;24.70;;;12.03;;
2646;SDS011;1333;50.958;6.770;2023-12-14T11:13:01;22.53;;;12.60;;
2646;SDS011;1333;50.958;6.770;2023-12-14T11:15:29;21.27;;;12.27;;
2646;SDS011;1333;50.958;6.770;2023-12-14T11:20:54;19.97;;;11.23;;
2646;SDS011;1333;50.958;6.770;2023-12-14T11:25:50;17.63;;;10.20;;
2646;SDS011;1333;50.958;6.770;2023-12-14T11:28:17;21.20;;;10.87;;
2646;SDS011;1333;50.958;6.770;2023-12-14T11:30:44;18.57;;;10.87;;
2646;SDS011;1333;50.958;6.770;2023-12-14T11:33:13;24.57;;;12.37;;
2646;SDS011;1333;50.958;6.770;2023-12-14T11:35:39;21.27;;;11.33;;
2646;SDS011;1333;50.958;6.770;2023-12-14T11:38:05;20.63;;;11.03;;
2646;SDS011;1333;50.958;6.770;2023-12-14T11:40:37;17.57;;;11.30;;
2646;SDS011;1333;50.958;6.770;2023-12-14T11:43:03;15.97;;;10.50;;
2646;SDS011;1333;50.958;6.770;2023-12-14T11:45:33;21.87;;;12.00;;
2646;SDS011;1333;50.958;6.770;2023-12-14T11:47:59;17.27;;;10.67;;
2646;SDS011;1333;50.958;6.770;2023-12-14T11:50:26;20.43;;;11.60;;
2646;SDS011;1333;50.958;6.770;2023-12-14T11:52:52;19.40;;;10.30;;
2646;SDS011;1333;50.958;6.770;2023-12-14T11:55:18;18.90;;;11.40;;
2646;SDS011;1333;50.958;6.770;2023-12-14T11:57:47;22.77;;;11.80;;
2646;SDS011;1333;50.958;6.770;2023-12-14T12:00:14;15.57;;;10.90;;
2646;SDS011;1333;50.958;6.770;2023-12-14T12:02:40;19.17;;;10.93;;
2646;SDS011;1333;50.958;6.770;2023-12-14T12:05:06;16.77;;;10.53;;
2646;SDS011;1333;50.958;6.770;2023-12-14T12:07:32;16.97;;;11.20;;
2646;SDS011;1333;50.958;6.770;2023-12-14T12:09:58;20.10;;;9.90;;
2646;SDS011;1333;50.958;6.770;2023-12-14T12:12:24;21.00;;;12.53;;
2646;SDS011;1333;50.958;6.770;2023-12-14T12:14:50;18.60;;;11.50;;
2646;SDS011;1333;50.958;6.770;2023-12-14T12:17:17;16.60;;;10.87;;
2646;SDS011;1333;50.958;6.770;2023-12-14T12:19:44;17.03;;;9.97;;
2646;SDS011;1333;50.958;6.770;2023-12-14T12:22:10;18.87;;;10.80;;
2646;SDS011;1333;50.958;6.770;2023-12-14T12:24:36;19.10;;;9.77;;
2646;SDS011;1333;50.958;6.770;2023-12-14T12:27:02;15.23;;;8.50;;
2646;SDS011;1333;50.958;6.770;2023-12-14T12:29:29;15.37;;;9.80;;
2646;SDS011;1333;50.958;6.770;2023-12-14T12:31:55;15.20;;;9.50;;
2646;SDS011;1333;50.958;6.770;2023-12-14T12:34:21;19.13;;;10.67;;
2646;SDS011;1333;50.958;6.770;2023-12-14T12:36:46;18.67;;;11.53;;
2646;SDS011;1333;50.958;6.770;2023-12-14T12:39:12;12.40;;;8.90;;
2646;SDS011;1333;50.958;6.770;2023-12-14T12:41:37;16.83;;;9.50;;
2646;SDS011;1333;50.958;6.770;2023-12-14T12:44:04;16.20;;;9.07;;
2646;SDS011;1333;50.958;6.770;2023-12-14T12:46:36;17.17;;;9.33;;
2646;SDS011;1333;50.958;6.770;2023-12-14T12:49:01;18.00;;;11.70;;
2646;SDS011;1333;50.958;6.770;2023-12-14T12:51:28;16.07;;;10.63;;
2646;SDS011;1333;50.958;6.770;2023-12-14T12:53:55;16.67;;;10.87;;
2646;SDS011;1333;50.958;6.770;2023-12-14T12:56:22;17.53;;;9.70;;
2646;SDS011;1333;50.958;6.770;2023-12-14T12:58:48;20.63;;;10.83;;
2646;SDS011;1333;50.958;6.770;2023-12-14T13:01:14;18.70;;;10.80;;
2646;SDS011;1333;50.958;6.770;2023-12-14T13:03:40;18.43;;;11.10;;
2646;SDS011;1333;50.958;6.770;2023-12-14T13:06:06;15.40;;;9.97;;
2646;SDS011;1333;50.958;6.770;2023-12-14T13:08:31;17.23;;;9.43;;
2646;SDS011;1333;50.958;6.770;2023-12-14T13:10:57;13.17;;;8.80;;
2646;SDS011;1333;50.958;6.770;2023-12-14T13:13:23;19.00;;;9.53;;
2646;SDS011;1333;50.958;6.770;2023-12-14T13:15:48;14.90;;;9.80;;
2646;SDS011;1333;50.958;6.770;2023-12-14T13:18:14;14.33;;;9.63;;
2646;SDS011;1333;50.958;6.770;2023-12-14T13:20:41;16.47;;;9.13;;
2646;SDS011;1333;50.958;6.770;2023-12-14T13:23:07;13.07;;;9.23;;
2646;SDS011;1333;50.958;6.770;2023-12-14T13:25:33;21.03;;;9.60;;
2646;SDS011;1333;50.958;6.770;2023-12-14T13:28:00;13.07;;;8.27;;
2646;SDS011;1333;50.958;6.770;2023-12-14T13:30:25;14.57;;;9.23;;
2646;SDS011;1333;50.958;6.770;2023-12-14T13:32:51;16.13;;;7.63;;
2646;SDS011;1333;50.958;6.770;2023-12-14T13:35:18;11.90;;;8.50;;
2646;SDS011;1333;50.958;6.770;2023-12-14T13:37:44;12.13;;;8.30;;
2646;SDS011;1333;50.958;6.770;2023-12-14T13:40:11;11.50;;;8.20;;
2646;SDS011;1333;50.958;6.770;2023-12-14T13:42:37;12.97;;;7.73;;
2646;SDS011;1333;50.958;6.770;2023-12-14T13:45:03;10.73;;;7.20;;
2646;SDS011;1333;50.958;6.770;2023-12-14T13:47:29;13.13;;;9.03;;
2646;SDS011;1333;50.958;6.770;2023-12-14T13:49:55;12.63;;;7.40;;
2646;SDS011;1333;50.958;6.770;2023-12-14T13:52:20;13.70;;;8.60;;
2646;SDS011;1333;50.958;6.770;2023-12-14T13:54:46;10.70;;;6.60;;
2646;SDS011;1333;50.958;6.770;2023-12-14T13:57:11;13.10;;;7.83;;
2646;SDS011;1333;50.958;6.770;2023-12-14T13:59:37;9.53;;;6.50;;
2646;SDS011;1333;50.958;6.770;2023-12-14T14:02:02;14.23;;;7.40;;
2646;SDS011;1333;50.958;6.770;2023-12-14T14:04:28;12.53;;;8.00;;
2646;SDS011;1333;50.958;6.770;2023-12-14T14:06:54;9.63;;;7.03;;
2646;SDS011;1333;50.958;6.770;2023-12-14T14:09:20;12.50;;;7.40;;
2646;SDS011;1333;50.958;6.770;2023-12-14T14:11:46;11.03;;;7.27;;
2646;SDS011;1333;50.958;6.770;2023-12-14T14:14:13;10.40;;;6.80;;
2646;SDS011;1333;50.958;6.770;2023-12-14T14:16:39;14.10;;;7.70;;
2646;SDS011;1333;50.958;6.770;2023-12-14T14:19:04;12.40;;;7.13;;
2646;SDS011;1333;50.958;6.770;2023-12-14T14:21:30;11.47;;;6.53;;
2646;SDS011;1333;50.958;6.770;2023-12-14T14:23:55;11.67;;;6.57;;
2646;SDS011;1333;50.958;6.770;2023-12-14T14:26:21;12.20;;;6.90;;
2646;SDS011;1333;50.958;6.770;2023-12-14T14:28:46;8.63;;;5.90;;
2646;SDS011;1333;50.958;6.770;2023-12-14T14:31:12;10.00;;;6.17;;
2646;SDS011;1333;50.958;6.770;2023-12-14T14:33:38;12.80;;;6.43;;
2646;SDS011;1333;50.958;6.770;2023-12-14T14:36:03;6.67;;;4.47;;
2646;SDS011;1333;50.958;6.770;2023-12-14T14:38:30;9.40;;;5.70;;
2646;SDS011;1333;50.958;6.770;2023-12-14T14:40:56;7.90;;;5.37;;
2646;SDS011;1333;50.958;6.770;2023-12-14T14:43:22;32.23;;;16.67;;
2646;SDS011;1333;50.958;6.770;2023-12-14T14:45:47;14.70;;;7.07;;
2646;SDS011;1333;50.958;6.770;2023-12-14T14:48:13;9.77;;;6.40;;
2646;SDS011;1333;50.958;6.770;2023-12-14T14:50:39;10.90;;;5.63;;
2646;SDS011;1333;50.958;6.770;2023-12-14T14:53:04;13.07;;;6.50;;
2646;SDS011;1333;50.958;6.770;2023-12-14T14:55:30;11.50;;;7.37;;